sensor_id;sensor_type;location;lat;lon;timestamp;pressure;altitude;pressure_sealevel;temperature;humidity
29549;BME280;16487;53.094;8.800;2023-08-17T00:01:19;100526.28;;;17.67;100.00
29549;BME280;16487;53.094;8.800;2023-08-17T00:03:46;100514.31;;;17.72;100.00
29549;BME280;16487;53.094;8.800;2023-08-17T00:06:16;100498.84;;;17.62;100.00
29549;BME280;16487;53.094;8.800;2023-08-17T00:08:44;100493.63;;;17.55;100.00
29549;BME280;16487;53.094;8.800;2023-08-17T00:11:11;100500.16;;;17.67;100.00
29549;BME280;16487;53.094;8.800;2023-08-17T00:13:38;100504.34;;;17.51;100.00
29549;BME280;16487;53.094;8.800;2023-08-17T00:16:05;100503.19;;;17.63;100.00
29549;BME280;16487;53.094;8.800;2023-08-17T00:18:32;100493.47;;;17.64;100.00
29549;BME280;16487;53.094;8.800;2023-08-17T00:21:00;100490.09;;;17.60;100.00
29549;BME280;16487;53.094;8.800;2023-08-17T00:23:28;100482.91;;;17.59;100.00
29549;BME280;16487;53.094;8.800;2023-08-17T00:25:56;100495.78;;;17.66;100.00
29549;BME280;16487;53.094;8.800;2023-08-17T00:28:23;100484.69;;;17.57;100.00
29549;BME280;16487;53.094;8.800;2023-08-17T00:30:50;100493.84;;;17.52;100.00
29549;BME280;16487;53.094;8.800;2023-08-17T00:33:18;100495.31;;;17.47;100.00
29549;BME280;16487;53.094;8.800;2023-08-17T00:35:46;100499.72;;;17.48;100.00
29549;BME280;16487;53.094;8.800;2023-08-17T00:38:13;100510.19;;;17.48;100.00
29549;BME280;16487;53.094;8.800;2023-08-17T00:40:43;100510.69;;;17.46;100.00
29549;BME280;16487;53.094;8.800;2023-08-17T00:43:10;100501.03;;;17.53;100.00
29549;BME280;16487;53.094;8.800;2023-08-17T00:45:37;100498.41;;;17.69;100.00
29549;BME280;16487;53.094;8.800;2023-08-17T00:48:06;100491.53;;;17.50;100.00
29549;BME280;16487;53.094;8.800;2023-08-17T00:50:35;100499.13;;;17.44;100.00
29549;BME280;16487;53.094;8.800;2023-08-17T00:53:08;100500.91;;;17.42;100.00
29549;BME280;16487;53.094;8.800;2023-08-17T00:55:36;100496.44;;;17.35;100.00
29549;BME280;16487;53.094;8.800;2023-08-17T00:58:05;100510.28;;;17.33;100.00
29549;BME280;16487;53.094;8.800;2023-08-17T01:00:34;100494.34;;;17.30;100.00
29549;BME280;16487;53.094;8.800;2023-08-17T01:03:04;100504.09;;;17.29;100.00
29549;BME280;16487;53.094;8.800;2023-08-17T01:05:32;100516.00;;;17.18;100.00
29549;BME280;16487;53.094;8.800;2023-08-17T01:07:59;100510.38;;;17.18;100.00
29549;BME280;16487;53.094;8.800;2023-08-17T01:10:33;100513.41;;;17.15;100.00
29549;BME280;16487;53.094;8.800;2023-08-17T01:13:11;100514.47;;;17.17;100.00
29549;BME280;16487;53.094;8.800;2023-08-17T01:15:47;100529.22;;;17.12;100.00
29549;BME280;16487;53.094;8.800;2023-08-17T01:18:21;100536.75;;;17.41;100.00
29549;BME280;16487;53.094;8.800;2023-08-17T01:20:52;100509.97;;;17.51;100.00
29549;BME280;16487;53.094;8.800;2023-08-17T01:23:21;100491.84;;;17.58;100.00
29549;BME280;16487;53.094;8.800;2023-08-17T01:25:48;100476.56;;;17.44;100.00
29549;BME280;16487;53.094;8.800;2023-08-17T01:28:16;100503.34;;;17.08;100.00
29549;BME280;16487;53.094;8.800;2023-08-17T01:30:47;100517.63;;;17.05;100.00
29549;BME280;16487;53.094;8.800;2023-08-17T01:33:23;100532.75;;;17.07;100.00
29549;BME280;16487;53.094;8.800;2023-08-17T01:36:01;100541.28;;;17.13;100.00
29549;BME280;16487;53.094;8.800;2023-08-17T01:38:33;100532.00;;;17.07;100.00
29549;BME280;16487;53.094;8.800;2023-08-17T01:41:01;100536.63;;;17.10;100.00
29549;BME280;16487;53.094;8.800;2023-08-17T01:43:29;100537.19;;;17.14;100.00
29549;BME280;16487;53.094;8.800;2023-08-17T01:45:59;100528.69;;;17.08;100.00
29549;BME280;16487;53.094;8.800;2023-08-17T01:48:26;100541.69;;;17.06;100.00
29549;BME280;16487;53.094;8.800;2023-08-17T01:50:54;100549.84;;;17.04;100.00
29549;BME280;16487;53.094;8.800;2023-08-17T01:53:21;100558.03;;;17.02;100.00
29549;BME280;16487;53.094;8.800;2023-08-17T01:55:51;100562.25;;;17.12;100.00
29549;BME280;16487;53.094;8.800;2023-08-17T01:58:20;100552.53;;;17.13;100.00
29549;BME280;16487;53.094;8.800;2023-08-17T02:00:48;100556.06;;;17.08;100.00
29549;BME280;16487;53.094;8.800;2023-08-17T02:03:15;100557.38;;;17.12;100.00
29549;BME280;16487;53.094;8.800;2023-08-17T02:05:44;100559.03;;;17.19;100.00
29549;BME280;16487;53.094;8.800;2023-08-17T02:08:13;100551.53;;;17.16;100.00
29549;BME280;16487;53.094;8.800;2023-08-17T02:10:40;100559.88;;;17.05;100.00
29549;BME280;16487;53.094;8.800;2023-08-17T02:13:08;100560.50;;;17.14;100.00
29549;BME280;16487;53.094;8.800;2023-08-17T02:15:46;100557.47;;;17.18;100.00
29549;BME280;16487;53.094;8.800;2023-08-17T02:18:16;100570.00;;;17.17;100.00
29549;BME280;16487;53.094;8.800;2023-08-17T02:20:43;100575.06;;;17.13;100.00
29549;BME280;16487;53.094;8.800;2023-08-17T02:23:11;100571.53;;;17.18;100.00
29549;BME280;16487;53.094;8.800;2023-08-17T02:25:38;100579.50;;;17.19;100.00
29549;BME280;16487;53.094;8.800;2023-08-17T02:28:06;100590.09;;;17.25;100.00
29549;BME280;16487;53.094;8.800;2023-08-17T02:30:35;100585.50;;;17.27;100.00
29549;BME280;16487;53.094;8.800;2023-08-17T02:33:03;100584.22;;;17.28;100.00
29549;BME280;16487;53.094;8.800;2023-08-17T02:35:30;100583.19;;;17.26;100.00
29549;BME280;16487;53.094;8.800;2023-08-17T02:37:58;100567.09;;;17.32;100.00
29549;BME280;16487;53.094;8.800;2023-08-17T02:40:25;100560.22;;;17.33;100.00
29549;BME280;16487;53.094;8.800;2023-08-17T02:42:52;100565.69;;;17.22;100.00
29549;BME280;16487;53.094;8.800;2023-08-17T02:45:19;100567.66;;;17.36;100.00
29549;BME280;16487;53.094;8.800;2023-08-17T02:47:47;100565.19;;;17.23;100.00
29549;BME280;16487;53.094;8.800;2023-08-17T02:50:15;100557.09;;;17.31;100.00
29549;BME280;16487;53.094;8.800;2023-08-17T02:52:43;100555.22;;;17.22;100.00
29549;BME280;16487;53.094;8.800;2023-08-17T02:55:10;100546.53;;;17.46;100.00
29549;BME280;16487;53.094;8.800;2023-08-17T02:57:37;100534.50;;;17.45;100.00
29549;BME280;16487;53.094;8.800;2023-08-17T03:00:07;100530.88;;;17.19;100.00
29549;BME280;16487;53.094;8.800;2023-08-17T03:02:35;100519.44;;;17.48;100.00
29549;BME280;16487;53.094;8.800;2023-08-17T03:05:04;100514.72;;;17.40;100.00
29549;BME280;16487;53.094;8.800;2023-08-17T03:07:31;100539.31;;;17.19;100.00
29549;BME280;16487;53.094;8.800;2023-08-17T03:09:58;100544.84;;;17.34;100.00
29549;BME280;16487;53.094;8.800;2023-08-17T03:12:25;100547.91;;;17.10;100.00
29549;BME280;16487;53.094;8.800;2023-08-17T03:14:52;100558.78;;;17.02;100.00
29549;BME280;16487;53.094;8.800;2023-08-17T03:17:20;100579.50;;;16.99;100.00
29549;BME280;16487;53.094;8.800;2023-08-17T03:19:47;100582.59;;;17.22;100.00
29549;BME280;16487;53.094;8.800;2023-08-17T03:22:19;100587.44;;;17.01;100.00
29549;BME280;16487;53.094;8.800;2023-08-17T03:24:46;100604.72;;;17.08;100.00
29549;BME280;16487;53.094;8.800;2023-08-17T03:27:13;100603.94;;;17.08;100.00
29549;BME280;16487;53.094;8.800;2023-08-17T03:29:40;100619.41;;;16.98;100.00
29549;BME280;16487;53.094;8.800;2023-08-17T03:32:07;100631.50;;;17.04;100.00
29549;BME280;16487;53.094;8.800;2023-08-17T03:34:36;100638.44;;;17.03;100.00
29549;BME280;16487;53.094;8.800;2023-08-17T03:37:04;100654.34;;;17.06;100.00
29549;BME280;16487;53.094;8.800;2023-08-17T03:39:33;100656.09;;;17.03;100.00
29549;BME280;16487;53.094;8.800;2023-08-17T03:42:00;100660.38;;;16.99;100.00
29549;BME280;16487;53.094;8.800;2023-08-17T03:44:27;100675.22;;;16.99;100.00
29549;BME280;16487;53.094;8.800;2023-08-17T03:46:54;100682.91;;;16.99;100.00
29549;BME280;16487;53.094;8.800;2023-08-17T03:49:21;100693.19;;;17.02;100.00
29549;BME280;16487;53.094;8.800;2023-08-17T03:51:49;100704.72;;;17.04;100.00
29549;BME280;16487;53.094;8.800;2023-08-17T03:54:17;100717.84;;;17.07;100.00
29549;BME280;16487;53.094;8.800;2023-08-17T03:56:45;100709.13;;;17.05;100.00
29549;BME280;16487;53.094;8.800;2023-08-17T03:59:13;100729.63;;;17.05;100.00
29549;BME280;16487;53.094;8.800;2023-08-17T04:01:41;100742.63;;;17.03;100.00
29549;BME280;16487;53.094;8.800;2023-08-17T04:04:08;100743.09;;;17.01;100.00
29549;BME280;16487;53.094;8.800;2023-08-17T04:06:35;100773.41;;;17.06;100.00
29549;BME280;16487;53.094;8.800;2023-08-17T04:09:03;100777.38;;;17.00;100.00
29549;BME280;16487;53.094;8.800;2023-08-17T04:11:30;100787.38;;;17.01;100.00
29549;BME280;16487;53.094;8.800;2023-08-17T04:13:59;100799.78;;;17.09;100.00
29549;BME280;16487;53.094;8.800;2023-08-17T04:16:26;100798.84;;;17.12;100.00
29549;BME280;16487;53.094;8.800;2023-08-17T04:18:55;100820.00;;;17.07;100.00
29549;BME280;16487;53.094;8.800;2023-08-17T04:21:25;100819.59;;;17.29;100.00
29549;BME280;16487;53.094;8.800;2023-08-17T04:23:54;100800.09;;;17.26;100.00
29549;BME280;16487;53.094;8.800;2023-08-17T04:26:21;100788.72;;;17.20;100.00
29549;BME280;16487;53.094;8.800;2023-08-17T04:28:48;100803.59;;;17.06;100.00
29549;BME280;16487;53.094;8.800;2023-08-17T04:31:17;100833.59;;;16.94;100.00
29549;BME280;16487;53.094;8.800;2023-08-17T04:33:52;100859.63;;;17.04;100.00
29549;BME280;16487;53.094;8.800;2023-08-17T04:36:19;100889.53;;;17.01;100.00
29549;BME280;16487;53.094;8.800;2023-08-17T04:38:46;100904.47;;;17.07;100.00
29549;BME280;16487;53.094;8.800;2023-08-17T04:41:15;100930.13;;;17.09;100.00
29549;BME280;16487;53.094;8.800;2023-08-17T04:43:43;100929.34;;;17.09;100.00
29549;BME280;16487;53.094;8.800;2023-08-17T04:46:11;100943.16;;;17.07;100.00
29549;BME280;16487;53.094;8.800;2023-08-17T04:48:41;100963.81;;;17.04;100.00
29549;BME280;16487;53.094;8.800;2023-08-17T04:51:08;100991.69;;;17.02;100.00
29549;BME280;16487;53.094;8.800;2023-08-17T04:53:36;101008.28;;;17.00;100.00
29549;BME280;16487;53.094;8.800;2023-08-17T04:56:04;101038.78;;;17.01;100.00
29549;BME280;16487;53.094;8.800;2023-08-17T04:58:32;101054.91;;;17.01;100.00
29549;BME280;16487;53.094;8.800;2023-08-17T05:00:59;101076.94;;;17.02;100.00
29549;BME280;16487;53.094;8.800;2023-08-17T05:03:27;101079.63;;;16.97;100.00
29549;BME280;16487;53.094;8.800;2023-08-17T05:06:02;101064.41;;;17.27;100.00
29549;BME280;16487;53.094;8.800;2023-08-17T05:08:31;101064.84;;;17.11;100.00
29549;BME280;16487;53.094;8.800;2023-08-17T05:10:58;101085.22;;;17.06;100.00
29549;BME280;16487;53.094;8.800;2023-08-17T05:13:26;101096.97;;;17.04;100.00
29549;BME280;16487;53.094;8.800;2023-08-17T05:15:57;101127.63;;;17.02;100.00
29549;BME280;16487;53.094;8.800;2023-08-17T05:18:25;101159.72;;;17.05;100.00
29549;BME280;16487;53.094;8.800;2023-08-17T05:20:52;101182.97;;;17.14;100.00
29549;BME280;16487;53.094;8.800;2023-08-17T05:23:21;101200.03;;;17.11;100.00
29549;BME280;16487;53.094;8.800;2023-08-17T05:25:48;101204.25;;;17.15;100.00
29549;BME280;16487;53.094;8.800;2023-08-17T05:28:16;101231.94;;;17.17;100.00
29549;BME280;16487;53.094;8.800;2023-08-17T05:30:43;101238.53;;;17.14;100.00
29549;BME280;16487;53.094;8.800;2023-08-17T05:33:10;101246.50;;;17.15;100.00
29549;BME280;16487;53.094;8.800;2023-08-17T05:35:38;101250.69;;;17.20;100.00
29549;BME280;16487;53.094;8.800;2023-08-17T05:38:06;101257.00;;;17.39;100.00
29549;BME280;16487;53.094;8.800;2023-08-17T05:40:34;101236.78;;;17.49;100.00
29549;BME280;16487;53.094;8.800;2023-08-17T05:43:01;101224.00;;;17.63;100.00
29549;BME280;16487;53.094;8.800;2023-08-17T05:45:28;101158.06;;;17.69;100.00
29549;BME280;16487;53.094;8.800;2023-08-17T05:47:55;101150.44;;;17.61;100.00
29549;BME280;16487;53.094;8.800;2023-08-17T05:50:23;101111.88;;;17.96;100.00
29549;BME280;16487;53.094;8.800;2023-08-17T05:52:50;101070.34;;;17.67;100.00
29549;BME280;16487;53.094;8.800;2023-08-17T05:55:19;101104.00;;;17.85;100.00
29549;BME280;16487;53.094;8.800;2023-08-17T05:57:47;101097.09;;;17.72;100.00
29549;BME280;16487;53.094;8.800;2023-08-17T06:00:15;101111.78;;;17.76;100.00
29549;BME280;16487;53.094;8.800;2023-08-17T06:02:42;101135.69;;;17.80;100.00
29549;BME280;16487;53.094;8.800;2023-08-17T06:05:09;101133.97;;;17.83;100.00
29549;BME280;16487;53.094;8.800;2023-08-17T06:07:37;101141.25;;;17.89;100.00
29549;BME280;16487;53.094;8.800;2023-08-17T06:10:05;101142.72;;;17.85;100.00
29549;BME280;16487;53.094;8.800;2023-08-17T06:12:32;101117.16;;;18.03;100.00
29549;BME280;16487;53.094;8.800;2023-08-17T06:15:01;101112.38;;;18.23;100.00
29549;BME280;16487;53.094;8.800;2023-08-17T06:17:28;101063.75;;;18.14;100.00
29549;BME280;16487;53.094;8.800;2023-08-17T06:19:56;101048.75;;;18.22;100.00
29549;BME280;16487;53.094;8.800;2023-08-17T06:22:23;101044.28;;;18.16;100.00
29549;BME280;16487;53.094;8.800;2023-08-17T06:24:50;101042.81;;;18.35;100.00
29549;BME280;16487;53.094;8.800;2023-08-17T06:27:18;101022.84;;;18.39;100.00
29549;BME280;16487;53.094;8.800;2023-08-17T06:29:46;100995.53;;;18.65;100.00
29549;BME280;16487;53.094;8.800;2023-08-17T06:32:14;100958.19;;;18.55;100.00
29549;BME280;16487;53.094;8.800;2023-08-17T06:34:41;100954.56;;;18.55;100.00
29549;BME280;16487;53.094;8.800;2023-08-17T06:37:09;100929.75;;;18.59;100.00
29549;BME280;16487;53.094;8.800;2023-08-17T06:39:39;100903.50;;;18.53;100.00
29549;BME280;16487;53.094;8.800;2023-08-17T06:42:06;100924.94;;;18.45;100.00
29549;BME280;16487;53.094;8.800;2023-08-17T06:44:33;100913.78;;;18.56;100.00
29549;BME280;16487;53.094;8.800;2023-08-17T06:47:01;100916.06;;;18.72;100.00
29549;BME280;16487;53.094;8.800;2023-08-17T06:49:30;100921.69;;;18.72;100.00
29549;BME280;16487;53.094;8.800;2023-08-17T06:51:57;100933.63;;;18.61;100.00
29549;BME280;16487;53.094;8.800;2023-08-17T06:54:24;100934.38;;;18.62;100.00
29549;BME280;16487;53.094;8.800;2023-08-17T06:56:51;100977.13;;;18.20;100.00
29549;BME280;16487;53.094;8.800;2023-08-17T06:59:18;101043.13;;;18.08;100.00
29549;BME280;16487;53.094;8.800;2023-08-17T07:01:45;101142.44;;;17.97;100.00
29549;BME280;16487;53.094;8.800;2023-08-17T07:04:12;101206.06;;;17.98;100.00
29549;BME280;16487;53.094;8.800;2023-08-17T07:06:41;101258.69;;;18.01;100.00
29549;BME280;16487;53.094;8.800;2023-08-17T07:09:08;101297.19;;;18.04;100.00
29549;BME280;16487;53.094;8.800;2023-08-17T07:11:35;101299.97;;;18.13;100.00
29549;BME280;16487;53.094;8.800;2023-08-17T07:14:02;101308.72;;;18.15;100.00
29549;BME280;16487;53.094;8.800;2023-08-17T07:16:30;101301.16;;;18.21;100.00
29549;BME280;16487;53.094;8.800;2023-08-17T07:18:57;101277.25;;;18.32;100.00
29549;BME280;16487;53.094;8.800;2023-08-17T07:21:24;101265.84;;;18.26;100.00
29549;BME280;16487;53.094;8.800;2023-08-17T07:23:54;101249.88;;;18.38;100.00
29549;BME280;16487;53.094;8.800;2023-08-17T07:26:21;101230.75;;;18.42;100.00
29549;BME280;16487;53.094;8.800;2023-08-17T07:28:49;101205.72;;;18.35;100.00
29549;BME280;16487;53.094;8.800;2023-08-17T07:31:16;101212.41;;;18.22;100.00
29549;BME280;16487;53.094;8.800;2023-08-17T07:33:43;101221.47;;;18.26;100.00
29549;BME280;16487;53.094;8.800;2023-08-17T07:36:10;101211.75;;;18.27;100.00
29549;BME280;16487;53.094;8.800;2023-08-17T07:38:37;101213.81;;;18.42;100.00
29549;BME280;16487;53.094;8.800;2023-08-17T07:41:06;101181.66;;;18.39;100.00
29549;BME280;16487;53.094;8.800;2023-08-17T07:43:33;101137.50;;;18.51;100.00
29549;BME280;16487;53.094;8.800;2023-08-17T07:46:00;101116.75;;;18.68;100.00
29549;BME280;16487;53.094;8.800;2023-08-17T07:48:27;101031.53;;;18.70;100.00
29549;BME280;16487;53.094;8.800;2023-08-17T07:50:54;100983.03;;;18.91;100.00
29549;BME280;16487;53.094;8.800;2023-08-17T07:53:21;100914.00;;;19.18;100.00
29549;BME280;16487;53.094;8.800;2023-08-17T07:55:49;100848.94;;;19.38;100.00
29549;BME280;16487;53.094;8.800;2023-08-17T07:58:20;100737.06;;;19.68;100.00
29549;BME280;16487;53.094;8.800;2023-08-17T08:00:47;100638.66;;;19.83;100.00
29549;BME280;16487;53.094;8.800;2023-08-17T08:03:14;100553.81;;;19.89;100.00
29549;BME280;16487;53.094;8.800;2023-08-17T08:05:41;100500.06;;;19.94;100.00
29549;BME280;16487;53.094;8.800;2023-08-17T08:08:09;100487.97;;;19.88;100.00
29549;BME280;16487;53.094;8.800;2023-08-17T08:10:36;100471.22;;;19.57;100.00
29549;BME280;16487;53.094;8.800;2023-08-17T08:13:03;100482.81;;;19.76;100.00
29549;BME280;16487;53.094;8.800;2023-08-17T08:15:32;100472.28;;;19.65;100.00
29549;BME280;16487;53.094;8.800;2023-08-17T08:18:00;100496.38;;;19.38;100.00
29549;BME280;16487;53.094;8.800;2023-08-17T08:20:27;100520.56;;;19.45;100.00
29549;BME280;16487;53.094;8.800;2023-08-17T08:22:54;100536.19;;;19.35;100.00
29549;BME280;16487;53.094;8.800;2023-08-17T08:25:21;100561.09;;;19.31;100.00
29549;BME280;16487;53.094;8.800;2023-08-17T08:27:48;100575.81;;;19.46;100.00
29549;BME280;16487;53.094;8.800;2023-08-17T08:30:15;100589.91;;;19.35;100.00
29549;BME280;16487;53.094;8.800;2023-08-17T08:32:44;100597.34;;;19.38;100.00
29549;BME280;16487;53.094;8.800;2023-08-17T08:35:11;100629.59;;;19.15;100.00
29549;BME280;16487;53.094;8.800;2023-08-17T08:37:38;100660.47;;;19.24;100.00
29549;BME280;16487;53.094;8.800;2023-08-17T08:40:11;100656.66;;;19.27;100.00
29549;BME280;16487;53.094;8.800;2023-08-17T08:42:38;100635.56;;;19.28;100.00
29549;BME280;16487;53.094;8.800;2023-08-17T08:45:06;100627.34;;;19.24;100.00
29549;BME280;16487;53.094;8.800;2023-08-17T08:47:35;100628.38;;;19.27;100.00
29549;BME280;16487;53.094;8.800;2023-08-17T08:50:05;100666.97;;;19.30;100.00
29549;BME280;16487;53.094;8.800;2023-08-17T08:52:33;100671.03;;;19.29;100.00
29549;BME280;16487;53.094;8.800;2023-08-17T08:55:10;100649.38;;;19.15;100.00
29549;BME280;16487;53.094;8.800;2023-08-17T08:57:38;100661.16;;;19.08;100.00
29549;BME280;16487;53.094;8.800;2023-08-17T09:00:07;100662.69;;;19.09;100.00
29549;BME280;16487;53.094;8.800;2023-08-17T09:02:35;100663.16;;;19.02;100.00
29549;BME280;16487;53.094;8.800;2023-08-17T09:05:05;100668.00;;;18.96;100.00
29549;BME280;16487;53.094;8.800;2023-08-17T09:07:34;100669.59;;;19.02;100.00
29549;BME280;16487;53.094;8.800;2023-08-17T09:10:02;100672.38;;;18.97;100.00
29549;BME280;16487;53.094;8.800;2023-08-17T09:12:30;100679.41;;;19.12;100.00
29549;BME280;16487;53.094;8.800;2023-08-17T09:15:08;100665.78;;;19.11;100.00
29549;BME280;16487;53.094;8.800;2023-08-17T09:17:36;100635.56;;;18.86;100.00
29549;BME280;16487;53.094;8.800;2023-08-17T09:20:06;100632.16;;;18.76;100.00
29549;BME280;16487;53.094;8.800;2023-08-17T09:22:39;100595.22;;;18.80;100.00
29549;BME280;16487;53.094;8.800;2023-08-17T09:25:07;100535.47;;;18.87;100.00
29549;BME280;16487;53.094;8.800;2023-08-17T09:27:35;100499.84;;;19.06;100.00
29549;BME280;16487;53.094;8.800;2023-08-17T09:30:04;100433.56;;;18.96;100.00
29549;BME280;16487;53.094;8.800;2023-08-17T09:32:31;100421.91;;;18.66;100.00
29549;BME280;16487;53.094;8.800;2023-08-17T09:35:01;100421.59;;;18.59;100.00
29549;BME280;16487;53.094;8.800;2023-08-17T09:37:29;100425.22;;;18.70;100.00
29549;BME280;16487;53.094;8.800;2023-08-17T09:39:56;100428.25;;;18.56;100.00
29549;BME280;16487;53.094;8.800;2023-08-17T09:42:23;100430.16;;;18.81;100.00
29549;BME280;16487;53.094;8.800;2023-08-17T09:44:51;100438.13;;;18.77;100.00
29549;BME280;16487;53.094;8.800;2023-08-17T09:47:18;100419.94;;;18.89;100.00
29549;BME280;16487;53.094;8.800;2023-08-17T09:49:48;100430.97;;;18.87;100.00
29549;BME280;16487;53.094;8.800;2023-08-17T09:52:15;100432.09;;;19.28;100.00
29549;BME280;16487;53.094;8.800;2023-08-17T09:54:45;100428.06;;;19.51;100.00
29549;BME280;16487;53.094;8.800;2023-08-17T09:57:12;100435.28;;;19.69;100.00
29549;BME280;16487;53.094;8.800;2023-08-17T09:59:40;100454.28;;;20.01;100.00
29549;BME280;16487;53.094;8.800;2023-08-17T10:02:12;100486.44;;;20.26;100.00
29549;BME280;16487;53.094;8.800;2023-08-17T10:04:44;100497.00;;;20.25;100.00
29549;BME280;16487;53.094;8.800;2023-08-17T10:07:14;100500.31;;;20.13;100.00
29549;BME280;16487;53.094;8.800;2023-08-17T10:09:47;100485.66;;;19.70;100.00
29549;BME280;16487;53.094;8.800;2023-08-17T10:12:17;100474.88;;;19.96;100.00
29549;BME280;16487;53.094;8.800;2023-08-17T10:14:49;100458.91;;;19.93;100.00
29549;BME280;16487;53.094;8.800;2023-08-17T10:17:25;100453.00;;;19.69;100.00
29549;BME280;16487;53.094;8.800;2023-08-17T10:19:55;100446.34;;;19.72;100.00
29549;BME280;16487;53.094;8.800;2023-08-17T10:22:27;100452.25;;;19.96;100.00
29549;BME280;16487;53.094;8.800;2023-08-17T10:25:00;100463.28;;;20.11;100.00
29549;BME280;16487;53.094;8.800;2023-08-17T10:27:29;100472.78;;;20.35;100.00
29549;BME280;16487;53.094;8.800;2023-08-17T10:29:56;100488.50;;;20.31;100.00
29549;BME280;16487;53.094;8.800;2023-08-17T10:35:10;100506.25;;;20.31;100.00
29549;BME280;16487;53.094;8.800;2023-08-17T10:37:38;100530.94;;;20.14;100.00
29549;BME280;16487;53.094;8.800;2023-08-17T10:40:08;100551.81;;;20.44;100.00
29549;BME280;16487;53.094;8.800;2023-08-17T10:42:41;100587.28;;;20.68;100.00
29549;BME280;16487;53.094;8.800;2023-08-17T10:45:28;100637.75;;;20.80;100.00
29549;BME280;16487;53.094;8.800;2023-08-17T10:48:25;100651.41;;;20.48;100.00
29549;BME280;16487;53.094;8.800;2023-08-17T10:51:00;100637.69;;;20.03;100.00
29549;BME280;16487;53.094;8.800;2023-08-17T10:53:34;100615.31;;;19.99;100.00
29549;BME280;16487;53.094;8.800;2023-08-17T10:56:06;100598.28;;;19.77;100.00
29549;BME280;16487;53.094;8.800;2023-08-17T10:58:34;100581.56;;;19.74;100.00
29549;BME280;16487;53.094;8.800;2023-08-17T11:01:01;100588.28;;;19.87;100.00
29549;BME280;16487;53.094;8.800;2023-08-17T11:03:28;100591.09;;;19.98;100.00
29549;BME280;16487;53.094;8.800;2023-08-17T11:05:57;100623.09;;;20.48;100.00
29549;BME280;16487;53.094;8.800;2023-08-17T11:08:28;100681.03;;;20.53;100.00
29549;BME280;16487;53.094;8.800;2023-08-17T11:11:02;100716.81;;;20.67;100.00
29549;BME280;16487;53.094;8.800;2023-08-17T11:13:32;100763.91;;;20.59;100.00
29549;BME280;16487;53.094;8.800;2023-08-17T11:16:01;100773.22;;;20.82;100.00
29549;BME280;16487;53.094;8.800;2023-08-17T11:18:30;100763.94;;;20.54;100.00
29549;BME280;16487;53.094;8.800;2023-08-17T11:20:58;100798.47;;;20.80;100.00
29549;BME280;16487;53.094;8.800;2023-08-17T11:23:28;100740.50;;;20.70;100.00
29549;BME280;16487;53.094;8.800;2023-08-17T11:25:56;100771.22;;;21.04;100.00
29549;BME280;16487;53.094;8.800;2023-08-17T11:28:24;100796.72;;;21.10;100.00
29549;BME280;16487;53.094;8.800;2023-08-17T11:30:58;100818.38;;;21.46;100.00
29549;BME280;16487;53.094;8.800;2023-08-17T11:33:26;100819.91;;;21.25;100.00
29549;BME280;16487;53.094;8.800;2023-08-17T11:35:54;100829.72;;;21.02;100.00
29549;BME280;16487;53.094;8.800;2023-08-17T11:38:21;100779.41;;;20.86;100.00
29549;BME280;16487;53.094;8.800;2023-08-17T11:40:48;100804.47;;;21.20;100.00
29549;BME280;16487;53.094;8.800;2023-08-17T11:43:16;100818.34;;;21.40;100.00
29549;BME280;16487;53.094;8.800;2023-08-17T11:45:48;100855.22;;;21.40;100.00
29549;BME280;16487;53.094;8.800;2023-08-17T11:48:18;100948.00;;;22.56;100.00
29549;BME280;16487;53.094;8.800;2023-08-17T11:50:45;101159.91;;;23.53;100.00
29549;BME280;16487;53.094;8.800;2023-08-17T11:53:12;101378.63;;;24.39;100.00
29549;BME280;16487;53.094;8.800;2023-08-17T11:55:39;101760.44;;;23.53;100.00
29549;BME280;16487;53.094;8.800;2023-08-17T11:58:07;101685.44;;;22.51;100.00
29549;BME280;16487;53.094;8.800;2023-08-17T12:00:39;101550.75;;;22.38;100.00
29549;BME280;16487;53.094;8.800;2023-08-17T12:03:07;101450.59;;;21.44;100.00
29549;BME280;16487;53.094;8.800;2023-08-17T12:05:36;101181.00;;;20.54;100.00
29549;BME280;16487;53.094;8.800;2023-08-17T12:08:03;100915.53;;;20.12;100.00
29549;BME280;16487;53.094;8.800;2023-08-17T12:10:31;100778.97;;;20.17;100.00
29549;BME280;16487;53.094;8.800;2023-08-17T12:12:58;100733.88;;;20.03;100.00
29549;BME280;16487;53.094;8.800;2023-08-17T12:15:30;100710.97;;;19.95;100.00
29549;BME280;16487;53.094;8.800;2023-08-17T12:17:59;100701.56;;;19.67;100.00
29549;BME280;16487;53.094;8.800;2023-08-17T12:20:27;100669.22;;;19.79;100.00
29549;BME280;16487;53.094;8.800;2023-08-17T12:22:57;100655.56;;;19.67;100.00
29549;BME280;16487;53.094;8.800;2023-08-17T12:25:24;100623.97;;;19.68;100.00
29549;BME280;16487;53.094;8.800;2023-08-17T12:27:52;100628.81;;;19.57;100.00
29549;BME280;16487;53.094;8.800;2023-08-17T12:30:29;100608.66;;;19.38;100.00
29549;BME280;16487;53.094;8.800;2023-08-17T12:32:57;100575.16;;;19.25;100.00
29549;BME280;16487;53.094;8.800;2023-08-17T12:35:25;100564.88;;;19.17;100.00
29549;BME280;16487;53.094;8.800;2023-08-17T12:37:53;100558.50;;;19.22;100.00
29549;BME280;16487;53.094;8.800;2023-08-17T12:40:23;100542.28;;;19.22;100.00
29549;BME280;16487;53.094;8.800;2023-08-17T12:42:50;100536.72;;;19.33;100.00
29549;BME280;16487;53.094;8.800;2023-08-17T12:45:17;100531.31;;;19.41;100.00
29549;BME280;16487;53.094;8.800;2023-08-17T12:47:44;100532.31;;;19.32;100.00
29549;BME280;16487;53.094;8.800;2023-08-17T12:50:11;100536.97;;;19.30;100.00